Time;durP1;ratioP1;P1;durP2;ratioP2;P2;SDS_P1;SDS_P2;PMS_P1;PMS_P2;Temp;Humidity;BMP_temperature;BMP_pressure;BME280_temperature;BME280_humidity;BME280_pressure;Samples;Min_cycle;Max_cycle;Signal;HPM_P1;HPM_P2
2022/03/30 00:00:50;;;;;;;10.00;2.33;;;;;;;;;;4963834;28;20099;-81
2022/03/30 00:03:16;;;;;;;9.95;2.10;;;;;;;;;;4965805;28;20043;-81
2022/03/30 00:05:41;;;;;;;14.15;2.00;;;;;;;;;;4965495;28;20039;-82
2022/03/30 00:08:07;;;;;;;11.95;2.42;;;;;;;;;;4957578;28;20030;-81
2022/03/30 00:10:33;;;;;;;17.83;2.60;;;;;;;;;;4947765;28;20582;-81
2022/03/30 00:12:59;;;;;;;10.95;2.28;;;;;;;;;;4947121;28;20044;-81
2022/03/30 00:15:25;;;;;;;11.05;2.10;;;;;;;;;;4951033;28;20039;-82
2022/03/30 00:17:51;;;;;;;11.90;2.67;;;;;;;;;;4951242;28;20481;-81
2022/03/30 00:20:16;;;;;;;11.48;2.05;;;;;;;;;;4949723;28;20038;-83
2022/03/30 00:22:42;;;;;;;14.13;2.47;;;;;;;;;;4953905;28;20037;-80
2022/03/30 00:25:09;;;;;;;14.55;2.67;;;;;;;;;;4965768;28;20031;-81
2022/03/30 00:27:35;;;;;;;11.00;2.70;;;;;;;;;;4960273;28;20046;-82
2022/03/30 00:30:01;;;;;;;8.93;2.35;;;;;;;;;;4967454;28;20415;-82
2022/03/30 00:32:26;;;;;;;10.63;2.10;;;;;;;;;;4963512;28;20039;-82
2022/03/30 00:34:52;;;;;;;10.07;2.97;;;;;;;;;;4950356;28;20037;-80
2022/03/30 00:37:17;;;;;;;13.90;3.22;;;;;;;;;;4948058;28;20114;-81
2022/03/30 00:39:42;;;;;;;8.02;2.45;;;;;;;;;;4949051;28;20407;-83
2022/03/30 00:42:23;;;;;;;12.57;2.67;;;;;;;;;;4968496;28;20034;-82
2022/03/30 00:44:48;;;;;;;14.05;2.78;;;;;;;;;;4966519;28;20023;-81
2022/03/30 00:47:20;;;;;;;11.25;2.50;;;;;;;;;;4965223;28;20389;-82
2022/03/30 00:49:48;;;;;;;8.85;2.20;;;;;;;;;;4961388;28;20035;-81
2022/03/30 00:52:14;;;;;;;10.52;2.35;;;;;;;;;;4964979;28;20051;-81
2022/03/30 00:54:45;;;;;;;12.70;2.72;;;;;;;;;;4963145;28;20070;-81
2022/03/30 00:57:14;;;;;;;10.80;2.80;;;;;;;;;;4950302;28;20034;-82
2022/03/30 00:59:41;;;;;;;6.10;2.33;;;;;;;;;;4965589;28;20039;-83
2022/03/30 01:02:06;;;;;;;11.95;2.78;;;;;;;;;;4957890;28;20577;-81
2022/03/30 01:04:32;;;;;;;10.48;2.42;;;;;;;;;;4947090;28;20122;-80
2022/03/30 01:06:58;;;;;;;9.52;2.40;;;;;;;;;;4952735;28;20039;-81
2022/03/30 01:09:23;;;;;;;8.38;2.47;;;;;;;;;;4963600;28;20062;-81
2022/03/30 01:11:51;;;;;;;12.15;2.50;;;;;;;;;;4945794;28;20538;-82
2022/03/30 01:14:17;;;;;;;8.95;2.60;;;;;;;;;;4946043;28;20561;-81
2022/03/30 01:16:43;;;;;;;12.40;2.45;;;;;;;;;;4949016;28;20034;-82
2022/03/30 01:19:10;;;;;;;10.05;3.15;;;;;;;;;;4966594;28;20035;-80
2022/03/30 01:21:36;;;;;;;8.57;3.05;;;;;;;;;;4963731;28;20114;-81
2022/03/30 01:24:02;;;;;;;10.55;2.55;;;;;;;;;;4944368;28;20054;-81
2022/03/30 01:26:27;;;;;;;8.32;2.45;;;;;;;;;;4949854;28;20034;-82
2022/03/30 01:28:54;;;;;;;8.55;2.53;;;;;;;;;;4963151;28;20039;-82
2022/03/30 01:34:03;;;;;;;11.52;2.60;;;;;;;;;;4964340;28;20061;-81
2022/03/30 01:36:28;;;;;;;12.77;2.92;;;;;;;;;;4963632;28;20038;-81
2022/03/30 01:38:53;;;;;;;10.77;2.83;;;;;;;;;;4950385;28;20435;-81
2022/03/30 01:41:19;;;;;;;9.95;2.65;;;;;;;;;;4962135;28;20026;-81
2022/03/30 01:43:44;;;;;;;9.32;2.83;;;;;;;;;;4947378;28;20063;-82
2022/03/30 01:46:09;;;;;;;9.75;2.58;;;;;;;;;;4944616;28;20035;-80
2022/03/30 01:48:35;;;;;;;10.02;3.10;;;;;;;;;;4958161;28;20043;-81
2022/03/30 01:51:01;;;;;;;15.00;3.15;;;;;;;;;;4946532;28;20586;-83
2022/03/30 01:53:26;;;;;;;16.75;3.70;;;;;;;;;;4965322;28;20090;-81
2022/03/30 01:55:51;;;;;;;11.35;2.90;;;;;;;;;;4946282;28;20030;-81
2022/03/30 01:58:17;;;;;;;11.70;2.50;;;;;;;;;;4950762;28;20509;-81
2022/03/30 02:00:43;;;;;;;12.95;3.10;;;;;;;;;;4963590;28;20079;-81
2022/03/30 02:03:09;;;;;;;10.57;3.15;;;;;;;;;;4954443;28;20043;-81
2022/03/30 02:05:34;;;;;;;12.75;2.97;;;;;;;;;;4966158;28;20042;-80
2022/03/30 02:07:59;;;;;;;11.75;3.13;;;;;;;;;;4950176;28;20463;-79
2022/03/30 02:10:25;;;;;;;11.57;2.90;;;;;;;;;;4949703;28;20387;-83
2022/03/30 02:12:50;;;;;;;12.10;3.33;;;;;;;;;;4944672;28;20035;-81
2022/03/30 02:15:16;;;;;;;9.88;2.80;;;;;;;;;;4954652;28;20043;-80
2022/03/30 02:17:41;;;;;;;9.98;2.63;;;;;;;;;;4950100;28;20070;-81
2022/03/30 02:20:08;;;;;;;14.60;2.90;;;;;;;;;;4959359;28;20166;-80
2022/03/30 02:22:34;;;;;;;12.33;3.00;;;;;;;;;;4948162;28;20113;-79
2022/03/30 02:24:59;;;;;;;10.95;3.22;;;;;;;;;;4946681;28;20042;-80
2022/03/30 02:27:25;;;;;;;12.30;2.75;;;;;;;;;;4944382;28;20082;-82
2022/03/30 02:29:52;;;;;;;9.75;2.80;;;;;;;;;;4948262;28;20024;-82
2022/03/30 02:32:18;;;;;;;14.40;2.92;;;;;;;;;;4957912;28;20078;-81
2022/03/30 02:34:44;;;;;;;9.70;3.30;;;;;;;;;;4949429;28;20724;-80
2022/03/30 02:37:10;;;;;;;9.45;2.65;;;;;;;;;;4944562;28;20443;-82
2022/03/30 02:39:37;;;;;;;10.23;2.80;;;;;;;;;;4962609;28;20046;-80
2022/03/30 02:42:02;;;;;;;14.05;3.38;;;;;;;;;;4945990;28;20045;-80
2022/03/30 02:44:28;;;;;;;10.55;3.10;;;;;;;;;;4962282;28;20121;-80
2022/03/30 02:46:56;;;;;;;11.95;2.75;;;;;;;;;;4946879;28;20062;-79
2022/03/30 02:49:24;;;;;;;13.27;2.90;;;;;;;;;;4939695;28;20110;-79
2022/03/30 02:51:49;;;;;;;10.15;3.08;;;;;;;;;;4947586;28;20121;-82
2022/03/30 02:54:15;;;;;;;10.23;2.90;;;;;;;;;;4951789;28;20141;-80
2022/03/30 02:56:40;;;;;;;10.63;3.40;;;;;;;;;;4962706;28;20346;-80
2022/03/30 02:59:05;;;;;;;9.00;2.65;;;;;;;;;;4963178;28;20491;-80
2022/03/30 03:01:31;;;;;;;11.43;3.03;;;;;;;;;;4962602;28;20513;-80
2022/03/30 03:03:57;;;;;;;9.60;3.00;;;;;;;;;;4950535;28;20113;-80
2022/03/30 03:06:22;;;;;;;11.02;3.10;;;;;;;;;;4951322;28;20023;-81
2022/03/30 03:08:48;;;;;;;11.88;2.88;;;;;;;;;;4969531;28;20393;-80
2022/03/30 03:11:13;;;;;;;12.55;2.97;;;;;;;;;;4953271;28;20031;-80
2022/03/30 03:13:39;;;;;;;13.10;3.15;;;;;;;;;;4966030;28;20516;-79
2022/03/30 03:16:05;;;;;;;11.85;3.75;;;;;;;;;;4949083;28;20035;-80
2022/03/30 03:18:31;;;;;;;10.70;2.78;;;;;;;;;;4952827;28;20035;-83
2022/03/30 03:20:56;;;;;;;11.02;2.67;;;;;;;;;;4958021;28;20170;-80
2022/03/30 03:23:21;;;;;;;14.23;3.08;;;;;;;;;;4950699;28;20035;-80
2022/03/30 03:25:47;;;;;;;10.68;2.45;;;;;;;;;;4953121;28;20067;-80
2022/03/30 03:28:13;;;;;;;9.48;2.75;;;;;;;;;;4954096;28;20041;-80
2022/03/30 03:30:39;;;;;;;9.75;2.40;;;;;;;;;;4954676;28;20038;-80
2022/03/30 03:33:06;;;;;;;13.73;3.88;;;;;;;;;;4967501;28;20046;-80
2022/03/30 03:35:31;;;;;;;11.63;3.03;;;;;;;;;;4947485;28;20510;-81
2022/03/30 03:37:57;;;;;;;10.82;2.50;;;;;;;;;;4956362;28;20045;-80
2022/03/30 03:40:23;;;;;;;10.85;3.10;;;;;;;;;;4960305;28;20114;-80
2022/03/30 03:42:48;;;;;;;9.57;2.58;;;;;;;;;;4948665;28;20905;-82
2022/03/30 03:45:14;;;;;;;10.77;2.55;;;;;;;;;;4961206;28;20045;-79
2022/03/30 03:47:41;;;;;;;9.80;2.45;;;;;;;;;;4964400;28;20491;-81
2022/03/30 03:50:07;;;;;;;9.88;2.35;;;;;;;;;;4951247;28;20118;-79
2022/03/30 03:52:32;;;;;;;7.75;2.38;;;;;;;;;;4965810;28;20965;-80
2022/03/30 03:54:58;;;;;;;10.57;2.75;;;;;;;;;;4951403;28;20574;-79
2022/03/30 03:57:23;;;;;;;10.82;2.20;;;;;;;;;;4967110;28;20042;-80
2022/03/30 03:59:48;;;;;;;10.88;2.60;;;;;;;;;;4949663;28;20101;-78
2022/03/30 04:02:14;;;;;;;14.65;2.60;;;;;;;;;;4946069;28;20445;-78
2022/03/30 04:04:39;;;;;;;10.88;2.47;;;;;;;;;;4966358;28;20050;-79
2022/03/30 04:07:04;;;;;;;11.52;3.00;;;;;;;;;;4964723;28;20031;-78
2022/03/30 04:09:30;;;;;;;10.80;2.65;;;;;;;;;;4953887;28;20037;-78
2022/03/30 04:11:55;;;;;;;12.93;2.78;;;;;;;;;;4949799;28;20038;-79
2022/03/30 04:14:21;;;;;;;12.27;3.05;;;;;;;;;;4947131;28;20370;-78
2022/03/30 04:16:47;;;;;;;14.07;3.03;;;;;;;;;;4944523;28;20030;-78
2022/03/30 04:19:13;;;;;;;11.35;3.30;;;;;;;;;;4962127;28;20502;-78
2022/03/30 04:21:38;;;;;;;10.30;3.20;;;;;;;;;;4964864;28;20153;-77
2022/03/30 04:24:04;;;;;;;10.98;2.78;;;;;;;;;;4955511;28;20059;-78
2022/03/30 04:26:29;;;;;;;12.65;2.72;;;;;;;;;;4943504;28;20046;-77
2022/03/30 04:28:55;;;;;;;10.10;2.63;;;;;;;;;;4961899;28;20039;-77
2022/03/30 04:31:20;;;;;;;10.85;2.65;;;;;;;;;;4958060;28;20744;-78
2022/03/30 04:33:46;;;;;;;13.77;2.80;;;;;;;;;;4965438;28;20537;-78
2022/03/30 04:36:11;;;;;;;12.13;3.10;;;;;;;;;;4946466;28;20042;-77
2022/03/30 04:38:37;;;;;;;12.70;3.20;;;;;;;;;;4946565;28;20027;-77
2022/03/30 04:41:02;;;;;;;10.98;3.40;;;;;;;;;;4962336;28;20090;-77
2022/03/30 04:43:30;;;;;;;11.52;3.25;;;;;;;;;;4948305;28;20127;-77
2022/03/30 04:45:55;;;;;;;9.18;2.65;;;;;;;;;;4948663;28;20459;-77
2022/03/30 04:48:22;;;;;;;10.45;2.65;;;;;;;;;;4951855;28;20170;-77
2022/03/30 04:50:48;;;;;;;13.82;3.17;;;;;;;;;;4954221;28;20042;-78
2022/03/30 04:53:13;;;;;;;13.02;2.70;;;;;;;;;;4946322;28;20030;-78
2022/03/30 04:55:39;;;;;;;9.65;2.50;;;;;;;;;;4945713;28;20074;-78
2022/03/30 04:58:04;;;;;;;11.65;2.40;;;;;;;;;;4962285;28;20043;-78
2022/03/30 05:00:31;;;;;;;14.75;2.83;;;;;;;;;;4961075;28;20429;-78
2022/03/30 05:02:56;;;;;;;14.73;3.30;;;;;;;;;;4945768;28;20046;-77
2022/03/30 05:05:21;;;;;;;12.27;2.90;;;;;;;;;;4966418;28;20043;-77
2022/03/30 05:07:47;;;;;;;18.85;3.17;;;;;;;;;;4952171;28;20043;-76
2022/03/30 05:10:13;;;;;;;10.98;3.35;;;;;;;;;;4960346;28;20035;-78
2022/03/30 05:12:39;;;;;;;11.82;2.78;;;;;;;;;;4964217;28;20482;-77
2022/03/30 05:15:05;;;;;;;10.77;2.63;;;;;;;;;;4947078;28;20735;-77
2022/03/30 05:17:30;;;;;;;15.10;2.95;;;;;;;;;;4945627;28;20060;-77
2022/03/30 05:19:56;;;;;;;12.95;3.15;;;;;;;;;;4943523;28;20031;-77
2022/03/30 05:22:21;;;;;;;15.05;3.08;;;;;;;;;;4947198;28;20114;-77
2022/03/30 05:24:47;;;;;;;15.20;2.95;;;;;;;;;;4947709;28;20034;-79
2022/03/30 05:27:12;;;;;;;11.02;2.95;;;;;;;;;;4942393;28;20042;-77
2022/03/30 05:29:40;;;;;;;9.55;2.25;;;;;;;;;;4960264;28;20042;-76
2022/03/30 05:32:06;;;;;;;10.40;2.78;;;;;;;;;;4948443;28;20050;-77
2022/03/30 05:34:31;;;;;;;15.85;3.25;;;;;;;;;;4961812;28;20442;-82
2022/03/30 05:36:59;;;;;;;11.70;2.80;;;;;;;;;;4963352;28;20115;-81
2022/03/30 05:39:25;;;;;;;13.05;3.20;;;;;;;;;;4951022;28;20501;-81
2022/03/30 05:41:52;;;;;;;15.18;3.30;;;;;;;;;;4956288;28;20039;-85
2022/03/30 05:44:17;;;;;;;9.50;3.13;;;;;;;;;;4944547;28;20066;-82
2022/03/30 05:46:43;;;;;;;12.75;2.70;;;;;;;;;;4961655;28;20073;-80
2022/03/30 05:49:08;;;;;;;11.27;2.95;;;;;;;;;;4959868;28;20034;-80
2022/03/30 05:51:33;;;;;;;12.43;3.05;;;;;;;;;;4954261;28;20054;-81
2022/03/30 05:53:59;;;;;;;12.02;3.05;;;;;;;;;;4955559;28;20032;-80
2022/03/30 05:57:00;;;;;;;10.88;2.80;;;;;;;;;;4942855;28;20051;-81
2022/03/30 05:59:11;;;;;;;10.90;3.25;;;;;;;;;;4961922;28;20047;-81
2022/03/30 06:01:37;;;;;;;12.07;3.33;;;;;;;;;;4953967;28;20034;-84
2022/03/30 06:04:02;;;;;;;11.52;2.90;;;;;;;;;;4948647;28;20125;-82
2022/03/30 06:06:27;;;;;;;17.38;5.00;;;;;;;;;;4935737;28;20031;-82
2022/03/30 06:08:53;;;;;;;11.25;2.80;;;;;;;;;;4960405;28;20490;-83
2022/03/30 06:11:18;;;;;;;12.95;3.15;;;;;;;;;;4945963;28;20118;-83
2022/03/30 06:13:44;;;;;;;11.57;3.30;;;;;;;;;;4958232;28;20057;-79
2022/03/30 06:16:10;;;;;;;9.57;2.92;;;;;;;;;;4952234;28;20046;-81
2022/03/30 06:18:35;;;;;;;12.30;3.13;;;;;;;;;;4936940;28;20479;-80
2022/03/30 06:21:04;;;;;;;14.05;3.10;;;;;;;;;;4944707;28;20043;-82
2022/03/30 06:23:30;;;;;;;13.68;3.13;;;;;;;;;;4956630;28;20043;-80
2022/03/30 06:25:55;;;;;;;11.68;3.10;;;;;;;;;;4948032;28;20074;-80
2022/03/30 06:28:26;;;;;;;13.48;3.50;;;;;;;;;;4949060;28;20062;-81
2022/03/30 06:30:52;;;;;;;13.45;3.33;;;;;;;;;;4952969;28;20046;-79
2022/03/30 06:33:17;;;;;;;12.18;3.10;;;;;;;;;;4958438;28;20459;-80
2022/03/30 06:35:43;;;;;;;12.38;3.22;;;;;;;;;;4947755;28;20117;-80
2022/03/30 06:38:08;;;;;;;14.90;3.40;;;;;;;;;;4951793;28;20061;-79
2022/03/30 06:40:34;;;;;;;13.90;3.70;;;;;;;;;;4952784;28;20066;-80
2022/03/30 06:43:00;;;;;;;14.25;3.28;;;;;;;;;;4952360;28;20042;-81
2022/03/30 06:45:26;;;;;;;15.13;3.35;;;;;;;;;;4963850;28;20039;-80
2022/03/30 06:47:52;;;;;;;12.45;3.25;;;;;;;;;;4952363;28;20541;-80
2022/03/30 06:50:19;;;;;;;10.30;2.95;;;;;;;;;;4963888;28;20032;-80
2022/03/30 06:52:47;;;;;;;12.93;3.70;;;;;;;;;;4948521;28;20436;-80
2022/03/30 06:55:14;;;;;;;16.63;3.95;;;;;;;;;;4950584;28;20106;-80
2022/03/30 06:57:40;;;;;;;14.25;3.60;;;;;;;;;;4952135;28;20027;-80
2022/03/30 07:00:06;;;;;;;15.10;3.83;;;;;;;;;;4959200;28;20035;-80
2022/03/30 07:02:31;;;;;;;10.90;3.20;;;;;;;;;;4956283;28;20047;-80
2022/03/30 07:04:57;;;;;;;16.77;3.38;;;;;;;;;;4964029;28;20118;-80
2022/03/30 07:10:15;;;;;;;14.93;3.45;;;;;;;;;;4964887;28;20037;-81
2022/03/30 07:12:48;;;;;;;16.10;3.28;;;;;;;;;;4951946;28;20031;-80
2022/03/30 07:15:17;;;;;;;13.70;3.15;;;;;;;;;;4945307;28;20042;-81
2022/03/30 07:18:01;;;;;;;12.95;3.30;;;;;;;;;;4952544;28;20030;-80
2022/03/30 07:20:28;;;;;;;17.33;3.65;;;;;;;;;;4945319;28;20495;-81
2022/03/30 07:22:58;;;;;;;14.23;3.08;;;;;;;;;;4946066;28;20110;-81
2022/03/30 07:25:23;;;;;;;14.75;3.60;;;;;;;;;;4961815;28;20069;-80
2022/03/30 07:27:51;;;;;;;11.52;2.90;;;;;;;;;;4947687;28;20027;-81
2022/03/30 07:30:18;;;;;;;14.45;3.92;;;;;;;;;;4969622;28;20035;-81
2022/03/30 07:32:45;;;;;;;11.43;2.72;;;;;;;;;;4966808;28;20434;-81
2022/03/30 07:35:12;;;;;;;11.40;3.17;;;;;;;;;;4952117;28;20041;-81
2022/03/30 07:37:38;;;;;;;14.60;3.05;;;;;;;;;;4971798;28;20347;-81
2022/03/30 07:40:06;;;;;;;20.02;3.15;;;;;;;;;;4962510;28;20236;-80
2022/03/30 07:42:31;;;;;;;12.38;2.90;;;;;;;;;;4967894;28;20625;-82
2022/03/30 07:44:57;;;;;;;14.77;3.03;;;;;;;;;;4949950;28;20030;-81
2022/03/30 07:47:22;;;;;;;13.68;3.30;;;;;;;;;;4947777;28;20121;-81
2022/03/30 07:49:48;;;;;;;16.42;2.90;;;;;;;;;;4957217;28;20041;-82
2022/03/30 07:52:14;;;;;;;13.70;3.10;;;;;;;;;;4950763;28;20046;-80
2022/03/30 07:54:41;;;;;;;14.95;3.58;;;;;;;;;;4961742;28;20371;-80
2022/03/30 07:57:06;;;;;;;15.48;4.15;;;;;;;;;;4950376;28;20081;-81
2022/03/30 07:59:32;;;;;;;16.95;3.53;;;;;;;;;;4948679;28;20437;-80
2022/03/30 08:01:58;;;;;;;10.50;2.95;;;;;;;;;;4966265;28;20046;-79
2022/03/30 08:04:24;;;;;;;9.38;3.05;;;;;;;;;;4949551;28;20042;-80
2022/03/30 08:06:52;;;;;;;9.90;2.72;;;;;;;;;;4947502;28;20031;-81
2022/03/30 08:09:18;;;;;;;12.50;2.63;;;;;;;;;;4949738;28;20031;-81
2022/03/30 08:11:43;;;;;;;10.35;2.55;;;;;;;;;;4965636;28;20648;-81
2022/03/30 08:14:09;;;;;;;11.50;2.60;;;;;;;;;;4949794;28;20038;-80
2022/03/30 08:16:34;;;;;;;9.60;2.65;;;;;;;;;;4964570;28;20054;-82
2022/03/30 08:19:00;;;;;;;8.15;2.63;;;;;;;;;;4966740;28;20474;-81
2022/03/30 08:24:09;;;;;;;12.10;2.95;;;;;;;;;;4965767;28;20038;-79
2022/03/30 08:26:35;;;;;;;11.52;2.67;;;;;;;;;;4955304;28;20035;-81
2022/03/30 08:29:03;;;;;;;11.88;2.67;;;;;;;;;;4964603;28;20053;-80
2022/03/30 08:31:29;;;;;;;10.40;3.00;;;;;;;;;;4965826;28;20038;-81
2022/03/30 08:33:55;;;;;;;13.18;3.67;;;;;;;;;;4952821;28;20039;-80
2022/03/30 08:36:20;;;;;;;10.35;2.72;;;;;;;;;;4946401;28;20039;-81
2022/03/30 08:38:48;;;;;;;9.13;2.42;;;;;;;;;;4951527;28;20042;-81
2022/03/30 08:41:14;;;;;;;13.90;2.70;;;;;;;;;;4942775;28;20039;-82
2022/03/30 08:43:40;;;;;;;15.98;2.88;;;;;;;;;;4953985;28;20043;-81
2022/03/30 08:46:05;;;;;;;9.77;2.95;;;;;;;;;;4955322;28;20039;-81
2022/03/30 08:48:31;;;;;;;15.13;2.78;;;;;;;;;;4946350;28;20098;-81
2022/03/30 08:50:59;;;;;;;10.90;2.30;;;;;;;;;;4964422;28;20038;-81
2022/03/30 08:53:26;;;;;;;10.85;3.05;;;;;;;;;;4943529;28;20039;-82
2022/03/30 08:55:51;;;;;;;11.90;2.28;;;;;;;;;;4949964;28;20031;-81
2022/03/30 08:58:17;;;;;;;11.68;2.55;;;;;;;;;;4949159;28;20031;-81
2022/03/30 09:00:43;;;;;;;10.65;2.35;;;;;;;;;;4958836;28;20039;-81
2022/03/30 09:03:08;;;;;;;11.65;2.78;;;;;;;;;;4944354;28;20046;-81
2022/03/30 09:05:37;;;;;;;14.27;2.47;;;;;;;;;;4963708;28;21146;-80
2022/03/30 09:08:14;;;;;;;8.63;2.10;;;;;;;;;;4967053;28;20046;-79
2022/03/30 09:10:42;;;;;;;14.73;2.60;;;;;;;;;;4944899;28;20030;-81
2022/03/30 09:13:09;;;;;;;11.80;2.65;;;;;;;;;;4956839;28;20282;-79
2022/03/30 09:15:35;;;;;;;10.80;2.78;;;;;;;;;;4947866;28;21060;-80
2022/03/30 09:18:03;;;;;;;16.83;3.03;;;;;;;;;;4972278;28;20061;-82
2022/03/30 09:20:28;;;;;;;13.82;2.40;;;;;;;;;;4965136;28;20531;-81
2022/03/30 09:22:56;;;;;;;12.07;2.47;;;;;;;;;;4950435;28;20118;-81
2022/03/30 09:25:26;;;;;;;10.80;2.20;;;;;;;;;;4948705;28;20640;-81
2022/03/30 09:27:54;;;;;;;9.35;1.73;;;;;;;;;;4957394;28;20521;-80
2022/03/30 09:30:21;;;;;;;5.70;1.83;;;;;;;;;;4955728;28;20046;-81
2022/03/30 09:32:47;;;;;;;9.10;2.15;;;;;;;;;;4952733;28;20069;-80
2022/03/30 09:35:27;;;;;;;9.77;2.40;;;;;;;;;;4954752;28;20057;-83
2022/03/30 09:37:59;;;;;;;8.80;2.13;;;;;;;;;;4962401;28;20094;-81
2022/03/30 09:40:47;;;;;;;6.90;1.35;;;;;;;;;;4979094;28;24670;-81
2022/03/30 09:43:17;;;;;;;6.13;1.63;;;;;;;;;;4947103;28;20035;-81
2022/03/30 09:45:44;;;;;;;6.82;1.70;;;;;;;;;;4962211;28;20037;-80
2022/03/30 09:48:21;;;;;;;9.40;1.90;;;;;;;;;;4961899;28;20039;-81
2022/03/30 09:50:52;;;;;;;13.20;2.10;;;;;;;;;;4949736;28;20027;-80
2022/03/30 09:53:19;;;;;;;6.63;1.98;;;;;;;;;;4945950;28;20081;-81
2022/03/30 09:56:23;;;;;;;8.65;2.13;;;;;;;;;;4958073;28;20078;-81
2022/03/30 09:58:54;;;;;;;8.40;2.65;;;;;;;;;;4943681;28;20034;-81
2022/03/30 10:01:22;;;;;;;9.13;2.70;;;;;;;;;;4963426;28;20118;-80
2022/03/30 10:03:52;;;;;;;9.60;2.30;;;;;;;;;;4959690;28;20050;-82
2022/03/30 10:06:23;;;;;;;11.50;2.20;;;;;;;;;;4960745;28;20554;-80
2022/03/30 10:08:50;;;;;;;9.55;2.25;;;;;;;;;;4947587;28;20089;-81
2022/03/30 10:11:16;;;;;;;12.50;2.55;;;;;;;;;;4959404;28;20042;-81
2022/03/30 10:13:43;;;;;;;10.35;2.40;;;;;;;;;;4950984;28;20068;-82
2022/03/30 10:16:09;;;;;;;11.37;2.73;;;;;;;;;;4949331;28;20039;-81
2022/03/30 10:18:35;;;;;;;7.80;2.20;;;;;;;;;;4952885;28;20039;-81
2022/03/30 10:21:26;;;;;;;9.90;2.20;;;;;;;;;;4951004;28;20376;-81
2022/03/30 10:24:03;;;;;;;26.00;12.07;;;;;;;;;;4965248;28;20089;-82
2022/03/30 10:26:40;;;;;;;8.88;2.05;;;;;;;;;;4950172;28;20394;-80
2022/03/30 10:29:09;;;;;;;8.02;2.17;;;;;;;;;;4977956;28;20037;-81
2022/03/30 10:31:34;;;;;;;9.23;1.90;;;;;;;;;;4948760;28;20118;-81
2022/03/30 10:34:24;;;;;;;10.15;1.95;;;;;;;;;;4965178;28;20125;-80
2022/03/30 10:37:09;;;;;;;11.20;2.13;;;;;;;;;;4960176;28;20553;-80
2022/03/30 10:39:35;;;;;;;9.18;2.20;;;;;;;;;;4948284;28;20039;-82
2022/03/30 10:42:08;;;;;;;7.70;1.80;;;;;;;;;;4946228;28;20043;-79
2022/03/30 10:44:36;;;;;;;10.80;2.10;;;;;;;;;;4958237;28;20023;-81
2022/03/30 10:47:19;;;;;;;8.07;2.08;;;;;;;;;;4975774;28;20390;-79
2022/03/30 10:49:54;;;;;;;7.43;2.05;;;;;;;;;;4974486;28;20078;-80
2022/03/30 10:52:42;;;;;;;8.32;2.50;;;;;;;;;;4964644;28;20034;-81
2022/03/30 10:55:16;;;;;;;6.68;2.10;;;;;;;;;;4968649;28;20145;-79
2022/03/30 10:57:53;;;;;;;12.40;2.55;;;;;;;;;;4966600;28;20913;-80
2022/03/30 11:00:24;;;;;;;9.57;2.22;;;;;;;;;;4965520;28;20035;-81
2022/03/30 11:02:50;;;;;;;9.30;2.40;;;;;;;;;;4959411;28;20116;-79
2022/03/30 11:05:17;;;;;;;8.10;2.10;;;;;;;;;;4949215;28;20752;-80
2022/03/30 11:07:42;;;;;;;8.80;2.37;;;;;;;;;;4971106;28;20058;-80
2022/03/30 11:10:18;;;;;;;8.40;1.80;;;;;;;;;;4954123;28;20318;-79
2022/03/30 11:13:12;;;;;;;7.78;1.88;;;;;;;;;;4964819;28;20047;-81
2022/03/30 11:15:59;;;;;;;7.03;1.77;;;;;;;;;;4965592;28;20122;-79
2022/03/30 11:18:25;;;;;;;7.93;1.80;;;;;;;;;;4963326;28;20034;-80
2022/03/30 11:21:20;;;;;;;8.82;1.77;;;;;;;;;;4951860;28;20490;-80
2022/03/30 11:24:07;;;;;;;7.85;1.77;;;;;;;;;;4954299;28;20051;-81
2022/03/30 11:26:53;;;;;;;7.53;1.88;;;;;;;;;;4976339;28;20614;-80
2022/03/30 11:29:51;;;;;;;8.38;2.25;;;;;;;;;;4959132;28;20035;-80
2022/03/30 11:32:23;;;;;;;6.68;1.70;;;;;;;;;;4965028;28;20499;-80
2022/03/30 11:34:52;;;;;;;8.60;1.77;;;;;;;;;;4974639;28;20395;-80
2022/03/30 11:37:19;;;;;;;10.02;2.40;;;;;;;;;;4968529;28;20058;-79
2022/03/30 11:39:49;;;;;;;11.13;2.07;;;;;;;;;;4964372;28;20556;-79
2022/03/30 11:42:16;;;;;;;8.43;1.80;;;;;;;;;;4948698;28;20027;-80
2022/03/30 11:47:27;;;;;;;7.25;2.00;;;;;;;;;;4970208;28;20117;-80
2022/03/30 11:49:53;;;;;;;9.48;2.00;;;;;;;;;;4950901;28;20031;-80
2022/03/30 11:52:23;;;;;;;7.72;1.70;;;;;;;;;;4953803;28;20038;-80
2022/03/30 11:54:51;;;;;;;8.82;2.50;;;;;;;;;;4966657;28;20042;-81
2022/03/30 11:57:17;;;;;;;;;;;;;;;;;;4958922;28;20516;-80
2022/03/30 11:59:53;;;;;;;7.45;1.70;;;;;;;;;;4956137;28;20008;-80
2022/03/30 12:02:19;;;;;;;6.32;1.73;;;;;;;;;;4953227;28;20035;-80
2022/03/30 12:04:44;;;;;;;7.80;1.48;;;;;;;;;;4959690;28;20125;-81
2022/03/30 12:07:14;;;;;;;9.30;1.92;;;;;;;;;;4948972;28;20129;-82
2022/03/30 12:09:47;;;;;;;10.70;1.73;;;;;;;;;;4950549;28;20062;-81
2022/03/30 12:12:13;;;;;;;7.43;1.85;;;;;;;;;;4947137;28;20580;-81
2022/03/30 12:14:39;;;;;;;8.20;1.90;;;;;;;;;;4951899;28;20040;-80
2022/03/30 12:17:08;;;;;;;7.47;2.15;;;;;;;;;;4944465;28;20039;-81
2022/03/30 12:19:33;;;;;;;11.63;2.00;;;;;;;;;;4956527;28;20034;-79
2022/03/30 12:22:06;;;;;;;5.55;2.13;;;;;;;;;;4948549;28;20043;-81
2022/03/30 12:24:32;;;;;;;6.63;1.80;;;;;;;;;;4955678;28;20089;-79
2022/03/30 12:26:59;;;;;;;7.70;2.57;;;;;;;;;;4947965;28;20086;-83
2022/03/30 12:29:30;;;;;;;8.52;2.22;;;;;;;;;;4965267;28;20045;-80
2022/03/30 12:32:02;;;;;;;9.45;2.30;;;;;;;;;;4950572;28;20450;-79
2022/03/30 12:34:33;;;;;;;7.43;2.17;;;;;;;;;;4949707;28;20049;-79
2022/03/30 12:37:01;;;;;;;10.43;2.58;;;;;;;;;;4947953;28;20055;-79
2022/03/30 12:39:42;;;;;;;9.23;2.60;;;;;;;;;;4943441;28;20386;-79
2022/03/30 12:42:09;;;;;;;8.43;2.30;;;;;;;;;;4961431;28;20525;-80
2022/03/30 12:45:02;;;;;;;10.33;2.60;;;;;;;;;;4974572;28;20042;-80
2022/03/30 12:47:33;;;;;;;6.18;2.42;;;;;;;;;;4946501;28;20852;-81
2022/03/30 12:50:03;;;;;;;8.20;2.20;;;;;;;;;;4965768;28;20039;-81
2022/03/30 12:52:53;;;;;;;6.65;2.30;;;;;;;;;;4947068;28;20039;-81
2022/03/30 12:55:20;;;;;;;10.13;2.67;;;;;;;;;;4947375;28;20051;-81
2022/03/30 12:57:52;;;;;;;8.27;2.55;;;;;;;;;;4972383;28;20039;-81
2022/03/30 13:00:22;;;;;;;10.63;2.70;;;;;;;;;;4952213;28;20443;-82
2022/03/30 13:02:48;;;;;;;8.98;2.80;;;;;;;;;;4951519;28;20446;-82
2022/03/30 13:05:23;;;;;;;10.07;2.65;;;;;;;;;;4957906;28;20055;-80
2022/03/30 13:07:51;;;;;;;11.00;2.85;;;;;;;;;;4946095;28;20181;-81
2022/03/30 13:10:18;;;;;;;11.77;3.33;;;;;;;;;;4969597;28;20031;-81
2022/03/30 13:12:55;;;;;;;9.40;2.60;;;;;;;;;;4966061;28;20027;-81
2022/03/30 13:15:22;;;;;;;7.60;2.60;;;;;;;;;;4948687;28;20500;-81
2022/03/30 13:18:03;;;;;;;6.45;2.65;;;;;;;;;;4950022;28;20038;-82
2022/03/30 13:20:31;;;;;;;7.95;2.25;;;;;;;;;;4942917;28;20035;-81
2022/03/30 13:22:59;;;;;;;10.60;2.60;;;;;;;;;;4961821;28;20091;-81
2022/03/30 13:25:31;;;;;;;7.30;2.50;;;;;;;;;;4952598;28;20113;-82
2022/03/30 13:27:56;;;;;;;12.85;3.40;;;;;;;;;;4964433;28;20085;-80
2022/03/30 13:30:21;;;;;;;6.53;2.88;;;;;;;;;;4967373;28;20386;-82
2022/03/30 13:32:48;;;;;;;9.75;2.70;;;;;;;;;;4965929;28;20045;-82
2022/03/30 13:35:13;;;;;;;7.55;2.50;;;;;;;;;;4949343;28;20414;-81
2022/03/30 13:37:38;;;;;;;12.55;3.30;;;;;;;;;;4958776;28;20034;-81
2022/03/30 13:40:05;;;;;;;5.63;2.33;;;;;;;;;;4949102;28;20082;-82
2022/03/30 13:42:33;;;;;;;10.77;2.80;;;;;;;;;;4960059;28;20038;-82
2022/03/30 13:44:58;;;;;;;10.32;2.88;;;;;;;;;;4951855;28;20038;-81
2022/03/30 13:47:27;;;;;;;10.15;3.28;;;;;;;;;;4948239;28;20057;-79
2022/03/30 13:49:54;;;;;;;10.43;3.17;;;;;;;;;;4962063;28;20031;-80
2022/03/30 13:52:19;;;;;;;6.82;2.50;;;;;;;;;;4958914;28;20031;-80
2022/03/30 13:54:44;;;;;;;15.52;7.18;;;;;;;;;;4958444;28;20062;-80
2022/03/30 13:57:09;;;;;;;10.48;3.10;;;;;;;;;;4964265;28;20115;-79
2022/03/30 13:59:35;;;;;;;7.75;2.67;;;;;;;;;;4961290;28;20190;-79
2022/03/30 14:02:02;;;;;;;9.40;2.90;;;;;;;;;;4962508;28;20391;-79
2022/03/30 14:04:27;;;;;;;7.97;2.55;;;;;;;;;;4944336;28;20038;-79
2022/03/30 14:06:53;;;;;;;12.05;2.72;;;;;;;;;;4955387;28;20154;-80
2022/03/30 14:09:19;;;;;;;6.85;2.63;;;;;;;;;;4953855;28;20046;-80
2022/03/30 14:11:44;;;;;;;7.22;2.50;;;;;;;;;;4965963;28;20486;-79
2022/03/30 14:14:09;;;;;;;8.98;2.50;;;;;;;;;;4947956;28;20042;-78
2022/03/30 14:16:35;;;;;;;13.15;3.72;;;;;;;;;;4951806;28;20043;-79
2022/03/30 14:19:00;;;;;;;15.93;7.85;;;;;;;;;;4943505;28;20051;-80
2022/03/30 14:21:25;;;;;;;13.18;3.10;;;;;;;;;;4962165;28;20042;-78
2022/03/30 14:23:51;;;;;;;9.43;2.65;;;;;;;;;;4954441;28;20039;-79
2022/03/30 14:26:16;;;;;;;10.93;3.63;;;;;;;;;;4953625;28;20109;-80
2022/03/30 14:28:41;;;;;;;9.48;3.13;;;;;;;;;;4965271;28;20121;-79
2022/03/30 14:31:07;;;;;;;8.90;3.30;;;;;;;;;;4944669;28;20073;-80
2022/03/30 14:33:32;;;;;;;8.40;2.45;;;;;;;;;;4944857;28;20822;-78
2022/03/30 14:35:59;;;;;;;8.63;2.67;;;;;;;;;;4943246;28;20059;-78
2022/03/30 14:38:25;;;;;;;9.80;2.55;;;;;;;;;;4944531;28;20034;-77
2022/03/30 14:40:51;;;;;;;8.73;2.38;;;;;;;;;;4945087;28;20499;-79
2022/03/30 14:43:17;;;;;;;7.35;2.67;;;;;;;;;;4948862;28;20035;-78
2022/03/30 14:45:42;;;;;;;5.35;2.17;;;;;;;;;;4959057;28;20037;-78
2022/03/30 14:48:09;;;;;;;10.70;2.63;;;;;;;;;;4946910;28;20078;-78
2022/03/30 14:50:34;;;;;;;10.85;2.67;;;;;;;;;;4944544;28;20038;-78